createdAt,value
2018-02-27T00:01:53.695Z,102679.17
2018-02-27T00:04:19.430Z,102672.20
2018-02-27T00:06:45.186Z,102680.07
2018-02-27T00:09:10.915Z,102671.09
2018-02-27T00:11:36.661Z,102678.03
2018-02-27T00:14:02.403Z,102674.81
2018-02-27T00:16:28.141Z,102668.41
2018-02-27T00:18:53.863Z,102671.61
2018-02-27T00:21:19.590Z,102674.19
2018-02-27T00:23:45.329Z,102665.50
2018-02-27T00:26:11.094Z,102661.21
2018-02-27T00:28:36.829Z,102658.98
2018-02-27T00:31:02.569Z,102656.73
2018-02-27T00:33:28.314Z,102657.14
2018-02-27T00:35:54.053Z,102661.53
2018-02-27T00:38:19.786Z,102657.59
2018-02-27T00:40:45.512Z,102658.94
2018-02-27T00:43:11.254Z,102652.84
2018-02-27T00:45:37.002Z,102652.52
2018-02-27T00:48:02.741Z,102657.61
2018-02-27T00:50:28.468Z,102650.55
2018-02-27T00:52:54.214Z,102651.88
2018-02-27T00:55:19.957Z,102653.83
2018-02-27T00:57:45.697Z,102646.38
2018-02-27T01:00:11.431Z,102648.42
2018-02-27T01:02:37.203Z,102644.52
2018-02-27T01:05:02.931Z,102642.61
2018-02-27T01:07:28.673Z,102642.68
2018-02-27T01:09:54.405Z,102635.18
2018-02-27T01:12:20.153Z,102629.61
2018-02-27T01:14:45.881Z,102629.14
2018-02-27T01:17:11.627Z,102630.04
2018-02-27T01:19:37.369Z,102626.56
2018-02-27T01:22:03.109Z,102624.73
2018-02-27T01:24:28.861Z,102623.57
2018-02-27T01:26:54.963Z,102629.19
2018-02-27T01:29:20.713Z,102621.98
2018-02-27T01:31:46.442Z,102614.83
2018-02-27T01:34:12.194Z,102616.70
2018-02-27T01:36:37.933Z,102619.91
2018-02-27T01:39:03.673Z,102616.68
2018-02-27T01:41:29.409Z,102608.08
2018-02-27T01:43:55.169Z,102603.20
2018-02-27T01:46:20.903Z,102600.94
2018-02-27T01:48:46.650Z,102590.03
2018-02-27T01:51:13.302Z,102590.27
2018-02-27T01:53:39.040Z,102590.02
2018-02-27T01:56:04.773Z,102586.19
2018-02-27T01:58:30.534Z,102589.42
2018-02-27T02:00:56.271Z,102589.13
2018-02-27T02:03:22.038Z,102586.72
2018-02-27T02:05:47.766Z,102585.98
2018-02-27T02:08:13.518Z,102583.25
2018-02-27T02:10:39.253Z,102581.66
2018-02-27T02:13:04.991Z,102580.27
2018-02-27T02:15:30.730Z,102579.37
2018-02-27T02:17:56.474Z,102567.37
2018-02-27T02:20:22.219Z,102566.42
2018-02-27T02:22:47.954Z,102568.07
2018-02-27T02:25:13.707Z,102566.55
2018-02-27T02:27:39.425Z,102568.08
2018-02-27T02:30:05.162Z,102565.42
2018-02-27T02:32:30.902Z,102561.84
2018-02-27T02:34:56.652Z,102570.45
2018-02-27T02:37:22.407Z,102564.00
2018-02-27T02:39:48.154Z,102555.78
2018-02-27T02:42:28.833Z,102556.81
2018-02-27T02:44:54.578Z,102556.33
2018-02-27T02:47:20.322Z,102557.52
2018-02-27T02:49:46.081Z,102550.32
2018-02-27T02:52:11.818Z,102548.01
2018-02-27T02:54:37.554Z,102546.47
2018-02-27T02:57:03.288Z,102536.64
2018-02-27T02:59:29.033Z,102538.66
2018-02-27T03:01:54.781Z,102535.56
2018-02-27T03:04:20.518Z,102532.56
2018-02-27T03:06:46.265Z,102527.56
2018-02-27T03:09:11.997Z,102529.98
2018-02-27T03:11:37.733Z,102528.55
2018-02-27T03:14:03.463Z,102522.46
2018-02-27T03:16:29.206Z,102526.07
2018-02-27T03:18:54.941Z,102518.27
2018-02-27T03:21:20.687Z,102515.30
2018-02-27T03:23:46.426Z,102512.79
2018-02-27T03:26:12.174Z,102514.56
2018-02-27T03:28:37.922Z,102510.09
2018-02-27T03:31:03.670Z,102506.14
2018-02-27T03:33:29.401Z,102501.72
2018-02-27T03:35:55.133Z,102501.23
2018-02-27T03:38:20.859Z,102491.45
2018-02-27T03:40:46.605Z,102487.34
2018-02-27T03:43:12.346Z,102492.01
2018-02-27T03:45:38.074Z,102489.91
2018-02-27T03:48:03.809Z,102480.48
2018-02-27T03:50:29.538Z,102483.59
2018-02-27T03:52:55.268Z,102477.78
2018-02-27T03:55:21.002Z,102477.22
2018-02-27T03:57:46.723Z,102472.06
2018-02-27T04:00:12.449Z,102466.75
2018-02-27T04:02:38.193Z,102465.20
2018-02-27T04:05:03.918Z,102466.75
2018-02-27T04:07:29.665Z,102460.49
2018-02-27T04:09:55.402Z,102461.70
2018-02-27T04:12:21.170Z,102466.53
2018-02-27T04:14:46.910Z,102457.95
2018-02-27T04:17:12.641Z,102459.76
2018-02-27T04:19:38.375Z,102460.75
2018-02-27T04:22:04.123Z,102458.17
2018-02-27T04:24:29.869Z,102456.59
2018-02-27T04:26:55.635Z,102451.91
2018-02-27T04:29:21.358Z,102457.45
2018-02-27T04:31:47.088Z,102451.84
2018-02-27T04:34:12.827Z,102457.16
2018-02-27T04:36:38.566Z,102456.75
2018-02-27T04:39:04.309Z,102457.93
2018-02-27T04:41:30.030Z,102452.11
2018-02-27T04:43:55.769Z,102439.81
2018-02-27T04:46:21.511Z,102446.44
2018-02-27T04:48:47.241Z,102447.84
2018-02-27T04:51:12.981Z,102439.97
2018-02-27T04:53:38.721Z,102440.91
2018-02-27T04:56:04.462Z,102439.87
2018-02-27T04:58:30.205Z,102440.21
2018-02-27T05:00:55.957Z,102438.33
2018-02-27T05:03:21.713Z,102445.89
2018-02-27T05:05:47.445Z,102437.94
2018-02-27T05:08:13.190Z,102435.16
2018-02-27T05:10:38.934Z,102437.59
2018-02-27T05:13:04.677Z,102439.15
2018-02-27T05:15:30.410Z,102437.38
2018-02-27T05:17:56.153Z,102441.60
2018-02-27T05:20:21.887Z,102435.72
2018-02-27T05:22:47.621Z,102431.50
2018-02-27T05:25:13.365Z,102425.41
2018-02-27T05:27:39.103Z,102426.05
2018-02-27T05:30:04.845Z,102425.93
2018-02-27T05:32:30.573Z,102420.53
2018-02-27T05:34:56.321Z,102422.47
2018-02-27T05:37:22.063Z,102416.19
2018-02-27T05:39:47.797Z,102420.75
2018-02-27T05:42:13.541Z,102419.33
2018-02-27T05:44:39.294Z,102416.92
2018-02-27T05:47:05.030Z,102416.48
2018-02-27T05:49:30.758Z,102418.91
2018-02-27T05:51:56.487Z,102409.16
2018-02-27T05:54:22.241Z,102418.66
2018-02-27T05:56:47.978Z,102421.40
2018-02-27T05:59:13.722Z,102421.36
2018-02-27T06:01:39.477Z,102423.16
2018-02-27T06:04:05.226Z,102417.51
2018-02-27T06:06:30.951Z,102414.42
2018-02-27T06:08:56.719Z,102417.38
2018-02-27T06:11:22.454Z,102421.01
2018-02-27T06:13:48.182Z,102422.27
2018-02-27T06:16:13.918Z,102424.48
2018-02-27T06:18:39.646Z,102420.05
2018-02-27T06:21:05.398Z,102420.05
2018-02-27T06:23:31.137Z,102422.45
2018-02-27T06:25:56.888Z,102420.36
2018-02-27T06:28:22.629Z,102421.62
2018-02-27T06:30:48.395Z,102421.72
2018-02-27T06:33:14.125Z,102414.91
2018-02-27T06:35:39.877Z,102421.45
2018-02-27T06:38:05.643Z,102419.96
2018-02-27T06:40:31.409Z,102416.81
2018-02-27T06:42:57.145Z,102421.41
2018-02-27T06:45:22.892Z,102410.58
2018-02-27T06:47:48.622Z,102409.82
2018-02-27T06:50:14.365Z,102412.25
2018-02-27T06:52:40.126Z,102409.04
2018-02-27T06:55:05.866Z,102407.83
2018-02-27T06:57:31.615Z,102409.47
2018-02-27T06:59:57.362Z,102397.67
2018-02-27T07:02:23.100Z,102398.53
2018-02-27T07:04:48.855Z,102412.76
2018-02-27T07:07:14.591Z,102409.20
2018-02-27T07:09:40.348Z,102406.65
2018-02-27T07:12:06.098Z,102401.71
2018-02-27T07:14:31.837Z,102406.34
2018-02-27T07:16:57.582Z,102399.41
2018-02-27T07:19:23.329Z,102393.25
2018-02-27T07:21:49.078Z,102394.94
2018-02-27T07:24:14.810Z,102393.34
2018-02-27T07:26:40.550Z,102389.48
2018-02-27T07:29:06.276Z,102387.05
2018-02-27T07:31:32.007Z,102386.58
2018-02-27T07:33:57.771Z,102392.09
2018-02-27T07:36:23.509Z,102389.70
2018-02-27T07:38:49.242Z,102385.72
2018-02-27T07:41:14.997Z,102392.34
2018-02-27T07:43:40.738Z,102383.81
2018-02-27T07:46:06.487Z,102385.11
2018-02-27T07:48:32.218Z,102386.83
2018-02-27T07:50:57.989Z,102393.38
2018-02-27T07:53:23.718Z,102393.63
2018-02-27T07:55:49.453Z,102389.41
2018-02-27T07:58:15.222Z,102380.35
2018-02-27T08:00:40.962Z,102381.45
2018-02-27T08:03:06.718Z,102378.19
2018-02-27T08:05:32.446Z,102378.55
2018-02-27T08:07:58.206Z,102377.17
2018-02-27T08:10:23.929Z,102379.51
2018-02-27T08:12:49.666Z,102375.52
2018-02-27T08:15:15.393Z,102381.66
2018-02-27T08:17:41.120Z,102379.66
2018-02-27T08:20:06.829Z,102385.05
2018-02-27T08:22:32.551Z,102390.19
2018-02-27T08:24:58.258Z,102383.02
2018-02-27T08:27:23.988Z,102369.70
2018-02-27T08:29:49.721Z,102374.70
2018-02-27T08:32:15.455Z,102372.31
2018-02-27T08:34:41.173Z,102378.86
2018-02-27T08:37:06.946Z,102373.89
2018-02-27T08:39:32.660Z,102373.64
2018-02-27T08:41:58.394Z,102373.05
2018-02-27T08:44:24.132Z,102374.85
2018-02-27T08:46:49.849Z,102363.66
2018-02-27T08:49:15.588Z,102367.22
2018-02-27T08:51:41.313Z,102369.73
2018-02-27T08:54:07.042Z,102365.94
2018-02-27T08:56:33.335Z,102360.27
2018-02-27T08:58:59.078Z,102360.30
2018-02-27T09:01:24.817Z,102357.81
2018-02-27T09:03:50.587Z,102359.02
2018-02-27T09:06:16.313Z,102350.20
2018-02-27T09:08:42.045Z,102353.59
2018-02-27T09:11:07.781Z,102350.47
2018-02-27T09:13:33.526Z,102349.91
2018-02-27T09:15:59.266Z,102346.91
2018-02-27T09:18:25.013Z,102340.67
2018-02-27T09:20:50.742Z,102335.11
2018-02-27T09:23:16.469Z,102333.79
2018-02-27T09:25:42.197Z,102336.61
2018-02-27T09:28:07.954Z,102331.81
2018-02-27T09:30:33.687Z,102326.62
2018-02-27T09:32:59.410Z,102325.50
2018-02-27T09:35:25.158Z,102324.18
2018-02-27T09:37:50.897Z,102324.23
2018-02-27T09:40:16.642Z,102321.45
2018-02-27T09:42:42.378Z,102325.91
2018-02-27T09:45:08.126Z,102331.44
2018-02-27T09:47:33.862Z,102326.85
2018-02-27T09:49:59.625Z,102329.91
2018-02-27T09:52:25.354Z,102329.09
2018-02-27T09:54:51.089Z,102322.22
2018-02-27T09:57:16.821Z,102314.78
2018-02-27T09:59:42.566Z,102322.47
2018-02-27T10:02:08.301Z,102326.41
2018-02-27T10:04:34.056Z,102320.80
2018-02-27T10:06:59.786Z,102330.07
2018-02-27T10:09:25.519Z,102321.77
2018-02-27T10:11:51.250Z,102325.57
2018-02-27T10:14:16.989Z,102325.19
2018-02-27T10:16:42.733Z,102329.38
2018-02-27T10:19:08.477Z,102320.92
2018-02-27T10:21:34.210Z,102322.84
2018-02-27T10:23:59.938Z,102317.44
2018-02-27T10:26:25.673Z,102319.19
2018-02-27T10:28:51.424Z,102313.78
2018-02-27T10:31:17.169Z,102311.93
2018-02-27T10:33:42.905Z,102313.23
2018-02-27T10:36:08.669Z,102314.39
2018-02-27T10:38:34.419Z,102315.52
2018-02-27T10:41:00.178Z,102309.13
2018-02-27T10:43:25.918Z,102309.13
2018-02-27T10:45:51.662Z,102309.10
2018-02-27T10:48:17.400Z,102308.52
2018-02-27T10:50:43.156Z,102308.52
2018-02-27T10:53:08.901Z,102303.78
2018-02-27T10:55:34.641Z,102296.07
2018-02-27T10:58:00.379Z,102305.16
2018-02-27T11:00:32.322Z,102303.70
2018-02-27T11:02:58.038Z,102300.97
2018-02-27T11:05:23.780Z,102302.19
2018-02-27T11:07:49.517Z,102296.51
2018-02-27T11:10:15.240Z,102285.37
2018-02-27T11:12:40.973Z,102289.00
2018-02-27T11:15:06.736Z,102284.34
2018-02-27T11:17:32.482Z,102280.75
2018-02-27T11:19:58.226Z,102276.81
2018-02-27T11:22:23.965Z,102282.49
2018-02-27T11:24:49.690Z,102279.70
2018-02-27T11:27:15.442Z,102279.12
2018-02-27T11:29:41.179Z,102292.75
2018-02-27T11:32:06.926Z,102274.80
2018-02-27T11:34:32.675Z,102280.52
2018-02-27T11:36:58.418Z,102281.17
2018-02-27T11:39:24.154Z,102272.02
2018-02-27T11:41:49.928Z,102265.92
2018-02-27T11:44:15.670Z,102265.92
2018-02-27T11:46:41.440Z,102277.26
2018-02-27T11:49:07.178Z,102280.23
2018-02-27T11:51:32.934Z,102269.27
2018-02-27T11:53:58.727Z,102263.05
2018-02-27T11:56:24.500Z,102256.86
2018-02-27T11:58:50.242Z,102261.98
2018-02-27T12:01:15.998Z,102249.31
2018-02-27T12:03:41.767Z,102261.10
2018-02-27T12:06:07.514Z,102266.50
2018-02-27T12:08:33.279Z,102263.23
2018-02-27T12:10:59.025Z,102264.67
2018-02-27T12:13:24.796Z,102252.81
2018-02-27T12:15:50.554Z,102253.72
2018-02-27T12:18:16.303Z,102250.88
2018-02-27T12:20:42.067Z,102242.68
2018-02-27T12:23:07.815Z,102238.06
2018-02-27T12:25:33.533Z,102241.51
2018-02-27T12:27:59.266Z,102237.42
2018-02-27T12:30:25.002Z,102240.88
2018-02-27T12:32:50.741Z,102237.14
2018-02-27T12:35:16.482Z,102235.87
2018-02-27T12:37:42.227Z,102230.68
2018-02-27T12:40:07.974Z,102234.67
2018-02-27T12:42:33.711Z,102228.92
2018-02-27T12:44:59.463Z,102227.57
2018-02-27T12:47:25.214Z,102230.66
2018-02-27T12:49:50.954Z,102227.69
2018-02-27T12:52:16.691Z,102232.23
2018-02-27T12:54:42.912Z,102227.59
2018-02-27T12:57:08.673Z,102226.16
2018-02-27T12:59:34.398Z,102229.23
2018-02-27T13:02:00.139Z,102220.48
2018-02-27T13:04:25.878Z,102222.67
2018-02-27T13:06:51.634Z,102222.00
2018-02-27T13:09:17.365Z,102212.16
2018-02-27T13:11:43.114Z,102217.52
2018-02-27T13:14:08.849Z,102215.12
2018-02-27T13:16:34.593Z,102206.02
2018-02-27T13:19:00.313Z,102212.39
2018-02-27T13:21:26.051Z,102207.41
2018-02-27T13:23:51.797Z,102207.96
2018-02-27T13:26:17.549Z,102202.52
2018-02-27T13:28:43.365Z,102210.14
2018-02-27T13:31:09.186Z,102209.32
2018-02-27T13:33:34.933Z,102207.98
2018-02-27T13:36:00.719Z,102203.77
2018-02-27T13:38:26.451Z,102201.80
2018-02-27T13:40:52.186Z,102201.31
2018-02-27T13:43:17.914Z,102198.76
2018-02-27T13:45:43.687Z,102195.61
2018-02-27T13:48:09.401Z,102187.47
2018-02-27T13:50:35.149Z,102186.26
2018-02-27T13:53:00.878Z,102185.50
2018-02-27T13:55:26.611Z,102181.48
2018-02-27T13:57:52.342Z,102187.11
2018-02-27T14:00:18.083Z,102192.87
2018-02-27T14:02:43.854Z,102192.25
2018-02-27T14:05:09.589Z,102189.03
2018-02-27T14:07:35.310Z,102194.65
2018-02-27T14:10:01.047Z,102198.55
2018-02-27T14:12:26.778Z,102198.72
2018-02-27T14:14:52.521Z,102193.67
2018-02-27T14:17:18.245Z,102196.07
2018-02-27T14:19:43.982Z,102206.01
2018-02-27T14:22:09.720Z,102194.89
2018-02-27T14:24:35.468Z,102190.47
2018-02-27T14:27:01.203Z,102199.87
2018-02-27T14:29:26.957Z,102190.57
2018-02-27T14:31:52.700Z,102189.30
2018-02-27T14:34:18.442Z,102181.98
2018-02-27T14:36:44.178Z,102183.88
2018-02-27T14:39:09.938Z,102180.05
2018-02-27T14:41:35.698Z,102182.11
2018-02-27T14:44:01.465Z,102191.41
2018-02-27T14:46:27.221Z,102181.67
2018-02-27T14:48:52.981Z,102178.63
2018-02-27T14:51:18.754Z,102185.76
2018-02-27T14:53:44.486Z,102192.67
2018-02-27T14:56:10.251Z,102192.10
2018-02-27T14:58:36.009Z,102193.61
2018-02-27T15:01:01.766Z,102193.57
2018-02-27T15:03:27.517Z,102191.22
2018-02-27T15:05:53.265Z,102192.00
2018-02-27T15:08:19.010Z,102196.16
2018-02-27T15:10:44.771Z,102199.19
2018-02-27T15:13:10.522Z,102196.07
2018-02-27T15:15:36.352Z,102198.79
2018-02-27T15:18:02.055Z,102195.65
2018-02-27T15:20:27.797Z,102194.95
2018-02-27T15:22:53.542Z,102198.12
2018-02-27T15:25:19.299Z,102197.52
2018-02-27T15:27:45.046Z,102190.88
2018-02-27T15:30:10.806Z,102194.45
2018-02-27T15:32:36.546Z,102196.05
2018-02-27T15:35:02.307Z,102190.45
2018-02-27T15:37:28.082Z,102194.76
2018-02-27T15:39:53.818Z,102198.05
2018-02-27T15:42:19.591Z,102198.73
2018-02-27T15:44:45.331Z,102201.70
2018-02-27T15:47:11.092Z,102203.67
2018-02-27T15:49:36.822Z,102204.42
2018-02-27T15:52:02.566Z,102209.77
2018-02-27T15:54:28.308Z,102211.79
2018-02-27T15:56:54.051Z,102216.46
2018-02-27T15:59:19.794Z,102216.44
2018-02-27T16:01:45.541Z,102220.93
2018-02-27T16:04:11.286Z,102230.80
2018-02-27T16:06:37.017Z,102230.06
2018-02-27T16:09:02.761Z,102229.94
2018-02-27T16:11:28.493Z,102232.07
2018-02-27T16:13:54.214Z,102231.38
2018-02-27T16:16:19.958Z,102236.09
2018-02-27T16:18:45.690Z,102237.57
2018-02-27T16:21:11.449Z,102241.02
2018-02-27T16:23:37.188Z,102247.02
2018-02-27T16:26:02.923Z,102243.36
2018-02-27T16:28:28.678Z,102242.44
2018-02-27T16:30:54.413Z,102249.42
2018-02-27T16:33:20.181Z,102244.52
2018-02-27T16:35:45.973Z,102245.58
2018-02-27T16:38:11.728Z,102262.59
2018-02-27T16:40:37.511Z,102254.86
2018-02-27T16:43:03.254Z,102260.08
2018-02-27T16:45:29.003Z,102266.07
2018-02-27T16:47:54.828Z,102256.95
2018-02-27T16:50:20.567Z,102272.00
2018-02-27T16:52:46.374Z,102274.11
2018-02-27T16:55:12.128Z,102277.81
2018-02-27T16:57:37.879Z,102279.89
2018-02-27T17:00:03.696Z,102284.84
2018-02-27T17:02:29.549Z,102285.56
2018-02-27T17:04:55.290Z,102282.25
2018-02-27T17:07:21.104Z,102289.73
2018-02-27T17:09:46.857Z,102294.81
2018-02-27T17:12:12.659Z,102295.73
2018-02-27T17:14:38.406Z,102303.55
2018-02-27T17:17:04.171Z,102297.05
2018-02-27T17:19:29.923Z,102305.51
2018-02-27T17:21:55.691Z,102307.05
2018-02-27T17:24:21.436Z,102299.75
2018-02-27T17:26:47.199Z,102306.16
2018-02-27T17:29:12.939Z,102307.25
2018-02-27T17:31:38.699Z,102311.28
2018-02-27T17:34:04.469Z,102313.17
2018-02-27T17:36:30.222Z,102313.28
2018-02-27T17:38:55.967Z,102308.45
2018-02-27T17:41:21.712Z,102313.61
2018-02-27T17:43:47.484Z,102314.31
2018-02-27T17:46:13.258Z,102322.73
2018-02-27T17:48:39.002Z,102326.42
2018-02-27T17:51:04.772Z,102317.66
2018-02-27T17:53:30.530Z,102315.52
2018-02-27T17:55:56.277Z,102325.23
2018-02-27T17:58:22.024Z,102324.78
2018-02-27T18:00:47.782Z,102332.14
2018-02-27T18:03:13.550Z,102324.39
2018-02-27T18:05:39.296Z,102330.89
2018-02-27T18:08:05.062Z,102332.20
2018-02-27T18:10:30.823Z,102335.91
2018-02-27T18:12:56.582Z,102338.22
2018-02-27T18:15:22.334Z,102338.13
2018-02-27T18:17:48.086Z,102340.59
2018-02-27T18:20:13.849Z,102349.64
2018-02-27T18:22:39.620Z,102350.28
2018-02-27T18:25:05.356Z,102349.20
2018-02-27T18:27:31.153Z,102350.88
2018-02-27T18:29:56.887Z,102350.31
2018-02-27T18:32:22.629Z,102357.12
2018-02-27T18:34:48.401Z,102352.27
2018-02-27T18:37:14.138Z,102355.39
2018-02-27T18:39:39.895Z,102354.95
2018-02-27T18:42:05.654Z,102361.16
2018-02-27T18:44:31.419Z,102361.41
2018-02-27T18:46:57.179Z,102364.86
2018-02-27T18:49:22.989Z,102371.97
2018-02-27T18:51:48.712Z,102370.67
2018-02-27T18:54:14.466Z,102375.00
2018-02-27T18:56:40.222Z,102384.94
2018-02-27T18:59:05.975Z,102381.09
2018-02-27T19:01:31.744Z,102388.66
2018-02-27T19:03:57.519Z,102393.34
2018-02-27T19:06:23.248Z,102397.34
2018-02-27T19:08:48.996Z,102398.86
2018-02-27T19:11:15.376Z,102405.23
2018-02-27T19:13:41.172Z,102406.73
2018-02-27T19:16:07.026Z,102413.78
2018-02-27T19:18:32.783Z,102426.31
2018-02-27T19:20:58.551Z,102425.25
2018-02-27T19:23:24.291Z,102440.41
2018-02-27T19:25:50.078Z,102438.92
2018-02-27T19:28:15.836Z,102440.41
2018-02-27T19:30:41.601Z,102446.41
2018-02-27T19:33:07.354Z,102452.89
2018-02-27T19:35:33.130Z,102446.61
2018-02-27T19:37:58.971Z,102453.54
2018-02-27T19:40:24.797Z,102454.70
2018-02-27T19:42:50.544Z,102451.13
2018-02-27T19:45:16.307Z,102459.45
2018-02-27T19:47:42.067Z,102472.98
2018-02-27T19:50:07.827Z,102459.06
2018-02-27T19:52:33.560Z,102471.05
2018-02-27T19:54:59.418Z,102480.14
2018-02-27T19:57:25.176Z,102479.88
2018-02-27T19:59:51.108Z,102491.98
2018-02-27T20:02:16.883Z,102488.33
2018-02-27T20:04:42.793Z,102485.22
2018-02-27T20:07:08.588Z,102480.47
2018-02-27T20:09:34.436Z,102488.31
2018-02-27T20:12:00.251Z,102484.01
2018-02-27T20:14:26.880Z,102492.66
2018-02-27T20:16:52.710Z,102492.78
2018-02-27T20:19:18.459Z,102497.80
2018-02-27T20:21:44.454Z,102497.89
2018-02-27T20:24:16.294Z,102495.52
2018-02-27T20:26:42.081Z,102506.08
2018-02-27T20:29:13.928Z,102505.98
2018-02-27T20:31:39.715Z,102502.95
2018-02-27T20:34:05.489Z,102499.30
2018-02-27T20:36:31.247Z,102502.81
2018-02-27T20:39:03.023Z,102502.61
2018-02-27T20:41:28.783Z,102507.39
2018-02-27T20:43:54.531Z,102513.48
2018-02-27T20:46:20.270Z,102521.55
2018-02-27T20:48:53.019Z,102515.61
2018-02-27T20:51:18.783Z,102516.51
2018-02-27T20:53:44.559Z,102515.92
2018-02-27T20:56:10.318Z,102525.48
2018-02-27T20:58:36.103Z,102529.80
2018-02-27T21:01:01.867Z,102531.02
2018-02-27T21:03:27.644Z,102542.18
2018-02-27T21:05:53.415Z,102541.59
2018-02-27T21:08:19.208Z,102530.05
2018-02-27T21:10:44.936Z,102527.40
2018-02-27T21:13:10.720Z,102536.80
2018-02-27T21:15:36.510Z,102528.66
2018-02-27T21:18:02.282Z,102538.77
2018-02-27T21:20:28.054Z,102544.62
2018-02-27T21:22:53.882Z,102536.16
2018-02-27T21:25:19.652Z,102543.88
2018-02-27T21:27:45.426Z,102551.80
2018-02-27T21:30:11.200Z,102546.66
2018-02-27T21:32:37.006Z,102553.51
2018-02-27T21:35:02.797Z,102562.76
2018-02-27T21:37:28.561Z,102561.19
2018-02-27T21:39:54.326Z,102562.55
2018-02-27T21:42:20.112Z,102563.41
2018-02-27T21:44:45.902Z,102562.64
2018-02-27T21:47:11.675Z,102568.83
2018-02-27T21:49:38.622Z,102564.41
2018-02-27T21:52:05.593Z,102575.13
2018-02-27T21:54:31.379Z,102577.08
2018-02-27T21:56:57.147Z,102575.58
2018-02-27T21:59:22.925Z,102570.70
2018-02-27T22:01:48.699Z,102578.00
2018-02-27T22:04:14.486Z,102573.08
2018-02-27T22:06:40.254Z,102576.98
2018-02-27T22:09:06.027Z,102577.19
2018-02-27T22:11:31.786Z,102581.19
2018-02-27T22:13:57.549Z,102579.67
2018-02-27T22:16:23.325Z,102582.53
2018-02-27T22:18:49.094Z,102586.52
2018-02-27T22:21:14.856Z,102601.94
2018-02-27T22:23:40.646Z,102593.56
2018-02-27T22:26:06.421Z,102591.22
2018-02-27T22:28:32.210Z,102584.10
2018-02-27T22:30:58.012Z,102587.52
2018-02-27T22:33:23.807Z,102583.84
2018-02-27T22:35:49.590Z,102586.95
2018-02-27T22:38:15.356Z,102588.92
2018-02-27T22:40:41.138Z,102579.69
2018-02-27T22:43:06.938Z,102579.89
2018-02-27T22:45:32.705Z,102587.94
2018-02-27T22:47:58.470Z,102584.25
2018-02-27T22:50:24.251Z,102586.15
2018-02-27T22:52:50.052Z,102585.92
2018-02-27T22:55:16.622Z,102595.86
2018-02-27T22:57:42.378Z,102602.06
2018-02-27T23:00:08.155Z,102605.95
2018-02-27T23:02:33.962Z,102595.45
2018-02-27T23:04:59.744Z,102594.28
2018-02-27T23:07:25.504Z,102591.26
2018-02-27T23:09:51.270Z,102606.18
2018-02-27T23:12:17.027Z,102600.86
2018-02-27T23:14:42.812Z,102602.70
2018-02-27T23:17:08.593Z,102611.25
2018-02-27T23:19:34.361Z,102615.52
2018-02-27T23:22:00.143Z,102617.55
2018-02-27T23:24:26.091Z,102618.80
2018-02-27T23:26:52.601Z,102625.00
2018-02-27T23:29:21.595Z,102628.36
2018-02-27T23:31:50.491Z,102627.34
2018-02-27T23:34:16.445Z,102622.73
2018-02-27T23:36:42.259Z,102619.52
2018-02-27T23:39:08.031Z,102617.33
2018-02-27T23:41:33.815Z,102623.10
2018-02-27T23:43:59.643Z,102617.52
2018-02-27T23:46:25.427Z,102617.77
2018-02-27T23:48:51.190Z,102622.45
2018-02-27T23:51:16.964Z,102619.87
2018-02-27T23:53:42.743Z,102633.30
2018-02-27T23:56:08.524Z,102638.91
2018-02-27T23:58:34.306Z,102643.84
